sensor_id;sensor_type;location;lat;lon;timestamp;pressure;altitude;pressure_sealevel;temperature;humidity
42859;BME280;28505;56.970;40.998;2024-03-25T00:04:54;98195.56;;;1.58;100.00
42859;BME280;28505;56.970;40.998;2024-03-25T00:10:15;98199.69;;;1.74;100.00
42859;BME280;28505;56.970;40.998;2024-03-25T00:15:37;98194.06;;;1.76;100.00
42859;BME280;28505;56.970;40.998;2024-03-25T00:21:02;98194.22;;;1.60;100.00
42859;BME280;28505;56.970;40.998;2024-03-25T00:26:23;98172.56;;;1.77;100.00
42859;BME280;28505;56.970;40.998;2024-03-25T00:31:44;98150.88;;;1.65;100.00
42859;BME280;28505;56.970;40.998;2024-03-25T00:37:06;98158.22;;;1.73;100.00
42859;BME280;28505;56.970;40.998;2024-03-25T00:42:27;98170.63;;;1.54;100.00
42859;BME280;28505;56.970;40.998;2024-03-25T00:48:01;98162.50;;;1.69;100.00
42859;BME280;28505;56.970;40.998;2024-03-25T00:53:22;98174.09;;;1.83;100.00
42859;BME280;28505;56.970;40.998;2024-03-25T00:58:44;98169.38;;;1.75;100.00
42859;BME280;28505;56.970;40.998;2024-03-25T01:04:09;98181.19;;;1.93;100.00
42859;BME280;28505;56.970;40.998;2024-03-25T01:09:30;98169.81;;;1.87;100.00
42859;BME280;28505;56.970;40.998;2024-03-25T01:14:52;98174.09;;;1.83;100.00
42859;BME280;28505;56.970;40.998;2024-03-25T01:20:13;98187.84;;;1.91;100.00
42859;BME280;28505;56.970;40.998;2024-03-25T01:25:34;98187.78;;;1.96;100.00
42859;BME280;28505;56.970;40.998;2024-03-25T01:30:55;98169.59;;;1.79;100.00
42859;BME280;28505;56.970;40.998;2024-03-25T01:36:16;98160.84;;;1.78;100.00
42859;BME280;28505;56.970;40.998;2024-03-25T01:41:39;98170.13;;;1.81;100.00
42859;BME280;28505;56.970;40.998;2024-03-25T01:47:00;98185.88;;;1.72;100.00
42859;BME280;28505;56.970;40.998;2024-03-25T01:52:22;98178.09;;;1.81;100.00
42859;BME280;28505;56.970;40.998;2024-03-25T01:57:46;98183.69;;;1.79;100.00
42859;BME280;28505;56.970;40.998;2024-03-25T02:03:20;98189.00;;;1.79;100.00
42859;BME280;28505;56.970;40.998;2024-03-25T02:08:41;98198.25;;;1.87;100.00
42859;BME280;28505;56.970;40.998;2024-03-25T02:14:03;98200.28;;;1.95;100.00
42859;BME280;28505;56.970;40.998;2024-03-25T02:19:24;98195.81;;;1.91;100.00
42859;BME280;28505;56.970;40.998;2024-03-25T02:24:46;98190.72;;;1.94;100.00
42859;BME280;28505;56.970;40.998;2024-03-25T02:30:08;98197.47;;;1.86;100.00
42859;BME280;28505;56.970;40.998;2024-03-25T02:35:33;98194.63;;;2.02;100.00
42859;BME280;28505;56.970;40.998;2024-03-25T02:40:55;98208.81;;;1.92;100.00
42859;BME280;28505;56.970;40.998;2024-03-25T02:46:29;98216.75;;;1.97;100.00
42859;BME280;28505;56.970;40.998;2024-03-25T02:51:50;98223.06;;;2.06;100.00
42859;BME280;28505;56.970;40.998;2024-03-25T02:57:24;98222.34;;;1.96;100.00
42859;BME280;28505;56.970;40.998;2024-03-25T03:02:44;98214.31;;;2.01;100.00
42859;BME280;28505;56.970;40.998;2024-03-25T03:08:06;98210.09;;;2.00;100.00
42859;BME280;28505;56.970;40.998;2024-03-25T03:13:27;98211.00;;;2.14;100.00
42859;BME280;28505;56.970;40.998;2024-03-25T03:18:48;98222.06;;;1.97;100.00
42859;BME280;28505;56.970;40.998;2024-03-25T03:24:08;98220.06;;;2.13;100.00
42859;BME280;28505;56.970;40.998;2024-03-25T03:29:41;98212.25;;;1.93;100.00
42859;BME280;28505;56.970;40.998;2024-03-25T03:35:02;98235.22;;;2.13;100.00
42859;BME280;28505;56.970;40.998;2024-03-25T03:40:23;98241.28;;;2.18;100.00
42859;BME280;28505;56.970;40.998;2024-03-25T03:45:44;98252.06;;;2.03;100.00
42859;BME280;28505;56.970;40.998;2024-03-25T03:51:08;98245.59;;;2.09;100.00
42859;BME280;28505;56.970;40.998;2024-03-25T03:56:29;98262.03;;;2.16;100.00
42859;BME280;28505;56.970;40.998;2024-03-25T04:01:51;98270.91;;;2.36;100.00
42859;BME280;28505;56.970;40.998;2024-03-25T04:07:12;98283.22;;;2.26;100.00
42859;BME280;28505;56.970;40.998;2024-03-25T04:12:32;98286.94;;;2.25;100.00
42859;BME280;28505;56.970;40.998;2024-03-25T04:17:54;98307.72;;;2.23;100.00
42859;BME280;28505;56.970;40.998;2024-03-25T04:23:15;98338.97;;;2.37;100.00
42859;BME280;28505;56.970;40.998;2024-03-25T04:28:38;98350.44;;;1.93;100.00
42859;BME280;28505;56.970;40.998;2024-03-25T04:33:59;98374.53;;;1.67;100.00
42859;BME280;28505;56.970;40.998;2024-03-25T04:39:21;98379.34;;;1.55;100.00
42859;BME280;28505;56.970;40.998;2024-03-25T04:44:43;98393.72;;;1.54;100.00
42859;BME280;28505;56.970;40.998;2024-03-25T04:50:06;98411.91;;;1.76;100.00
42859;BME280;28505;56.970;40.998;2024-03-25T04:55:27;98417.28;;;1.66;100.00
42859;BME280;28505;56.970;40.998;2024-03-25T05:00:48;98436.97;;;1.59;100.00
42859;BME280;28505;56.970;40.998;2024-03-25T05:06:10;98454.50;;;1.60;100.00
42859;BME280;28505;56.970;40.998;2024-03-25T05:11:32;98470.13;;;1.72;100.00
42859;BME280;28505;56.970;40.998;2024-03-25T05:17:05;98467.97;;;1.79;100.00
42859;BME280;28505;56.970;40.998;2024-03-25T05:22:29;98483.63;;;1.86;100.00
42859;BME280;28505;56.970;40.998;2024-03-25T05:27:50;98501.88;;;2.08;100.00
42859;BME280;28505;56.970;40.998;2024-03-25T05:33:23;98497.72;;;1.76;100.00
42859;BME280;28505;56.970;40.998;2024-03-25T05:38:57;98510.47;;;1.84;100.00
42859;BME280;28505;56.970;40.998;2024-03-25T05:44:21;98528.78;;;1.91;100.00
42859;BME280;28505;56.970;40.998;2024-03-25T05:49:41;98534.94;;;1.76;100.00
42859;BME280;28505;56.970;40.998;2024-03-25T05:55:02;98540.53;;;1.80;100.00
42859;BME280;28505;56.970;40.998;2024-03-25T06:00:23;98552.47;;;1.77;100.00
42859;BME280;28505;56.970;40.998;2024-03-25T06:06:00;98563.53;;;2.10;100.00
42859;BME280;28505;56.970;40.998;2024-03-25T06:11:21;98569.44;;;1.92;100.00
42859;BME280;28505;56.970;40.998;2024-03-25T06:16:42;98583.72;;;2.11;100.00
42859;BME280;28505;56.970;40.998;2024-03-25T06:22:04;98614.66;;;1.71;100.00
42859;BME280;28505;56.970;40.998;2024-03-25T06:27:25;98633.78;;;1.78;100.00
42859;BME280;28505;56.970;40.998;2024-03-25T06:32:59;98634.53;;;1.99;100.00
42859;BME280;28505;56.970;40.998;2024-03-25T06:38:39;98644.13;;;1.85;100.00
42859;BME280;28505;56.970;40.998;2024-03-25T06:44:00;98655.00;;;1.88;100.00
42859;BME280;28505;56.970;40.998;2024-03-25T06:57:05;98684.50;;;2.02;100.00
42859;BME280;28505;56.970;40.998;2024-03-25T07:02:39;98694.34;;;2.07;100.00
42859;BME280;28505;56.970;40.998;2024-03-25T07:08:01;98703.91;;;1.87;100.00
42859;BME280;28505;56.970;40.998;2024-03-25T07:13:23;98715.06;;;2.10;100.00
42859;BME280;28505;56.970;40.998;2024-03-25T07:18:46;98726.22;;;2.17;100.00
42859;BME280;28505;56.970;40.998;2024-03-25T07:24:08;98747.72;;;2.46;100.00
42859;BME280;28505;56.970;40.998;2024-03-25T07:29:48;98742.09;;;2.58;100.00
42859;BME280;28505;56.970;40.998;2024-03-25T07:35:08;98769.22;;;2.65;100.00
42859;BME280;28505;56.970;40.998;2024-03-25T07:40:30;98766.03;;;2.63;100.00
42859;BME280;28505;56.970;40.998;2024-03-25T07:45:51;98779.66;;;2.31;100.00
42859;BME280;28505;56.970;40.998;2024-03-25T07:51:37;98794.00;;;2.40;100.00
42859;BME280;28505;56.970;40.998;2024-03-25T07:57:01;98802.50;;;2.32;100.00
42859;BME280;28505;56.970;40.998;2024-03-25T08:02:35;98810.88;;;3.00;100.00
42859;BME280;28505;56.970;40.998;2024-03-25T08:08:08;98817.91;;;2.66;100.00
42859;BME280;28505;56.970;40.998;2024-03-25T08:13:29;98817.03;;;3.01;100.00
42859;BME280;28505;56.970;40.998;2024-03-25T08:19:07;98812.56;;;3.51;100.00
42859;BME280;28505;56.970;40.998;2024-03-25T08:24:28;98819.25;;;2.68;100.00
42859;BME280;28505;56.970;40.998;2024-03-25T08:29:49;98842.53;;;3.17;100.00
42859;BME280;28505;56.970;40.998;2024-03-25T08:35:16;98845.78;;;2.94;100.00
42859;BME280;28505;56.970;40.998;2024-03-25T08:40:37;98847.19;;;4.01;100.00
42859;BME280;28505;56.970;40.998;2024-03-25T08:45:58;98851.63;;;3.66;100.00
42859;BME280;28505;56.970;40.998;2024-03-25T08:51:19;98870.88;;;3.58;100.00
42859;BME280;28505;56.970;40.998;2024-03-25T08:56:52;98875.47;;;3.37;100.00
42859;BME280;28505;56.970;40.998;2024-03-25T09:02:12;98886.44;;;3.30;100.00
42859;BME280;28505;56.970;40.998;2024-03-25T09:07:37;98881.78;;;3.66;100.00
42859;BME280;28505;56.970;40.998;2024-03-25T09:12:59;98900.88;;;3.79;100.00
42859;BME280;28505;56.970;40.998;2024-03-25T09:18:21;98904.34;;;3.14;100.00
42859;BME280;28505;56.970;40.998;2024-03-25T09:23:54;98910.75;;;3.78;100.00
42859;BME280;28505;56.970;40.998;2024-03-25T09:29:19;98913.69;;;3.82;100.00
42859;BME280;28505;56.970;40.998;2024-03-25T09:34:40;98908.69;;;3.65;100.00
42859;BME280;28505;56.970;40.998;2024-03-25T09:40:01;98918.06;;;3.57;100.00
42859;BME280;28505;56.970;40.998;2024-03-25T09:45:25;98926.34;;;3.45;100.00
42859;BME280;28505;56.970;40.998;2024-03-25T09:50:49;98937.25;;;3.49;100.00
42859;BME280;28505;56.970;40.998;2024-03-25T09:56:10;98943.91;;;3.51;100.00
42859;BME280;28505;56.970;40.998;2024-03-25T10:01:33;98944.50;;;3.23;100.00
42859;BME280;28505;56.970;40.998;2024-03-25T10:06:54;98963.91;;;3.49;100.00
42859;BME280;28505;56.970;40.998;2024-03-25T10:12:15;98966.91;;;3.27;100.00
42859;BME280;28505;56.970;40.998;2024-03-25T10:17:36;98960.25;;;3.14;100.00
42859;BME280;28505;56.970;40.998;2024-03-25T10:22:57;98960.91;;;3.66;100.00
42859;BME280;28505;56.970;40.998;2024-03-25T10:28:29;98959.09;;;3.56;100.00
42859;BME280;28505;56.970;40.998;2024-03-25T10:39:32;98957.03;;;3.27;100.00
42859;BME280;28505;56.970;40.998;2024-03-25T10:44:53;98960.19;;;3.50;100.00
42859;BME280;28505;56.970;40.998;2024-03-25T10:50:15;98962.19;;;3.79;100.00
42859;BME280;28505;56.970;40.998;2024-03-25T10:55:55;98967.56;;;3.68;100.00
42859;BME280;28505;56.970;40.998;2024-03-25T11:01:30;98986.44;;;3.82;100.00
42859;BME280;28505;56.970;40.998;2024-03-25T11:06:54;98973.16;;;3.72;97.43
42859;BME280;28505;56.970;40.998;2024-03-25T11:12:15;98978.91;;;4.05;96.54
42859;BME280;28505;56.970;40.998;2024-03-25T11:17:36;98989.56;;;4.05;94.98
42859;BME280;28505;56.970;40.998;2024-03-25T11:22:58;98996.97;;;4.18;96.21
42859;BME280;28505;56.970;40.998;2024-03-25T11:28:27;98995.38;;;4.22;94.60
42859;BME280;28505;56.970;40.998;2024-03-25T11:33:48;99003.16;;;4.08;96.27
42859;BME280;28505;56.970;40.998;2024-03-25T11:39:10;99015.09;;;4.26;93.57
42859;BME280;28505;56.970;40.998;2024-03-25T11:44:36;99008.47;;;4.08;92.39
42859;BME280;28505;56.970;40.998;2024-03-25T11:49:58;99010.81;;;4.25;94.05
42859;BME280;28505;56.970;40.998;2024-03-25T11:55:19;99022.94;;;3.97;92.60
42859;BME280;28505;56.970;40.998;2024-03-25T12:00:54;99024.13;;;3.50;94.13
42859;BME280;28505;56.970;40.998;2024-03-25T12:06:17;99029.41;;;3.65;95.23
42859;BME280;28505;56.970;40.998;2024-03-25T12:11:37;99029.31;;;4.01;91.16
42859;BME280;28505;56.970;40.998;2024-03-25T12:17:10;99019.78;;;3.85;90.27
42859;BME280;28505;56.970;40.998;2024-03-25T12:22:32;99042.16;;;3.99;90.92
42859;BME280;28505;56.970;40.998;2024-03-25T12:27:57;99046.56;;;4.29;89.36
42859;BME280;28505;56.970;40.998;2024-03-25T12:33:18;99053.88;;;3.93;89.47
42859;BME280;28505;56.970;40.998;2024-03-25T12:38:39;99052.44;;;4.26;86.61
42859;BME280;28505;56.970;40.998;2024-03-25T12:44:01;99060.44;;;4.21;86.79
42859;BME280;28505;56.970;40.998;2024-03-25T12:49:22;99060.94;;;4.28;87.57
42859;BME280;28505;56.970;40.998;2024-03-25T12:54:56;99067.06;;;4.39;85.33
42859;BME280;28505;56.970;40.998;2024-03-25T13:00:17;99074.03;;;4.30;84.13
42859;BME280;28505;56.970;40.998;2024-03-25T13:05:42;99075.25;;;4.47;83.70
42859;BME280;28505;56.970;40.998;2024-03-25T13:11:07;99083.63;;;4.31;84.29
42859;BME280;28505;56.970;40.998;2024-03-25T13:16:41;99083.56;;;4.46;84.92
42859;BME280;28505;56.970;40.998;2024-03-25T13:22:04;99094.25;;;4.41;82.24
42859;BME280;28505;56.970;40.998;2024-03-25T13:27:26;99094.38;;;4.05;82.81
42859;BME280;28505;56.970;40.998;2024-03-25T13:32:48;99093.28;;;4.11;83.40
42859;BME280;28505;56.970;40.998;2024-03-25T13:38:09;99102.69;;;3.93;86.79
42859;BME280;28505;56.970;40.998;2024-03-25T13:43:30;99114.41;;;4.03;86.56
42859;BME280;28505;56.970;40.998;2024-03-25T13:48:51;99114.03;;;4.30;85.06
42859;BME280;28505;56.970;40.998;2024-03-25T13:54:13;99124.41;;;4.41;84.61
42859;BME280;28505;56.970;40.998;2024-03-25T13:59:34;99122.25;;;4.49;82.04
42859;BME280;28505;56.970;40.998;2024-03-25T14:04:56;99128.53;;;4.78;80.28
42859;BME280;28505;56.970;40.998;2024-03-25T14:10:18;99132.03;;;4.68;80.27
42859;BME280;28505;56.970;40.998;2024-03-25T14:15:39;99136.41;;;4.49;80.23
42859;BME280;28505;56.970;40.998;2024-03-25T14:21:00;99147.16;;;4.18;80.41
42859;BME280;28505;56.970;40.998;2024-03-25T14:26:21;99142.88;;;4.22;80.79
42859;BME280;28505;56.970;40.998;2024-03-25T14:31:45;99149.34;;;3.91;83.30
42859;BME280;28505;56.970;40.998;2024-03-25T14:37:08;99152.50;;;4.08;81.40
42859;BME280;28505;56.970;40.998;2024-03-25T14:42:35;99137.09;;;3.39;86.11
42859;BME280;28505;56.970;40.998;2024-03-25T14:47:57;99158.41;;;3.18;91.66
42859;BME280;28505;56.970;40.998;2024-03-25T14:53:18;99157.09;;;3.31;89.27
42859;BME280;28505;56.970;40.998;2024-03-25T14:58:40;99172.00;;;3.32;93.24
42859;BME280;28505;56.970;40.998;2024-03-25T15:04:01;99174.97;;;3.61;85.11
42859;BME280;28505;56.970;40.998;2024-03-25T15:09:26;99177.25;;;2.96;97.75
42859;BME280;28505;56.970;40.998;2024-03-25T15:14:48;99190.06;;;2.37;100.00
42859;BME280;28505;56.970;40.998;2024-03-25T15:20:11;99193.22;;;2.39;100.00
42859;BME280;28505;56.970;40.998;2024-03-25T15:25:42;99195.28;;;2.21;100.00
42859;BME280;28505;56.970;40.998;2024-03-25T15:31:03;99202.84;;;2.02;100.00
42859;BME280;28505;56.970;40.998;2024-03-25T15:36:38;99204.94;;;1.95;100.00
42859;BME280;28505;56.970;40.998;2024-03-25T15:41:59;99214.97;;;1.56;100.00
42859;BME280;28505;56.970;40.998;2024-03-25T15:47:21;99221.00;;;1.46;100.00
42859;BME280;28505;56.970;40.998;2024-03-25T15:52:43;99223.47;;;1.04;100.00
42859;BME280;28505;56.970;40.998;2024-03-25T15:58:18;99219.59;;;0.67;100.00
42859;BME280;28505;56.970;40.998;2024-03-25T16:03:40;99240.03;;;0.89;100.00
42859;BME280;28505;56.970;40.998;2024-03-25T16:09:02;99252.53;;;0.50;100.00
42859;BME280;28505;56.970;40.998;2024-03-25T16:14:32;99248.13;;;0.38;100.00
42859;BME280;28505;56.970;40.998;2024-03-25T16:19:53;99259.41;;;0.12;100.00
42859;BME280;28505;56.970;40.998;2024-03-25T16:25:20;99245.19;;;0.18;100.00
42859;BME280;28505;56.970;40.998;2024-03-25T16:30:47;99252.19;;;-0.10;100.00
42859;BME280;28505;56.970;40.998;2024-03-25T16:36:12;99266.28;;;-0.21;100.00
42859;BME280;28505;56.970;40.998;2024-03-25T16:41:47;99264.84;;;-0.12;100.00
42859;BME280;28505;56.970;40.998;2024-03-25T16:47:23;99271.78;;;-0.39;100.00
42859;BME280;28505;56.970;40.998;2024-03-25T16:52:53;99267.06;;;-0.66;100.00
42859;BME280;28505;56.970;40.998;2024-03-25T16:58:17;99271.41;;;-0.88;100.00
42859;BME280;28505;56.970;40.998;2024-03-25T17:03:52;99285.41;;;-0.76;100.00
42859;BME280;28505;56.970;40.998;2024-03-25T17:09:18;99296.38;;;-0.84;100.00
42859;BME280;28505;56.970;40.998;2024-03-25T17:14:45;99292.66;;;-1.35;100.00
42859;BME280;28505;56.970;40.998;2024-03-25T17:20:07;99296.59;;;-0.74;100.00
42859;BME280;28505;56.970;40.998;2024-03-25T17:25:32;99295.19;;;-0.77;100.00
42859;BME280;28505;56.970;40.998;2024-03-25T17:30:55;99302.28;;;-0.94;100.00
42859;BME280;28505;56.970;40.998;2024-03-25T17:36:44;99320.72;;;-1.11;100.00
42859;BME280;28505;56.970;40.998;2024-03-25T17:42:11;99314.28;;;-1.38;100.00
42859;BME280;28505;56.970;40.998;2024-03-25T17:47:49;99317.09;;;-0.93;100.00
42859;BME280;28505;56.970;40.998;2024-03-25T17:53:12;99321.31;;;-1.56;100.00
42859;BME280;28505;56.970;40.998;2024-03-25T17:58:47;99323.03;;;-1.26;100.00
42859;BME280;28505;56.970;40.998;2024-03-25T18:04:09;99325.03;;;-1.99;100.00
42859;BME280;28505;56.970;40.998;2024-03-25T18:09:33;99334.97;;;-1.59;100.00
42859;BME280;28505;56.970;40.998;2024-03-25T18:14:56;99335.78;;;-1.23;100.00
42859;BME280;28505;56.970;40.998;2024-03-25T18:20:30;99339.13;;;-1.63;100.00
42859;BME280;28505;56.970;40.998;2024-03-25T18:25:54;99341.00;;;-2.05;100.00
42859;BME280;28505;56.970;40.998;2024-03-25T18:31:17;99341.28;;;-1.72;100.00
42859;BME280;28505;56.970;40.998;2024-03-25T18:36:51;99358.09;;;-1.43;100.00
42859;BME280;28505;56.970;40.998;2024-03-25T18:42:27;99363.81;;;-2.41;100.00
42859;BME280;28505;56.970;40.998;2024-03-25T18:47:49;99360.59;;;-1.59;100.00
42859;BME280;28505;56.970;40.998;2024-03-25T18:53:09;99363.16;;;-1.95;100.00
42859;BME280;28505;56.970;40.998;2024-03-25T18:58:30;99367.75;;;-2.02;100.00
42859;BME280;28505;56.970;40.998;2024-03-25T19:03:52;99366.84;;;-1.96;100.00
42859;BME280;28505;56.970;40.998;2024-03-25T19:09:12;99375.34;;;-1.94;100.00
42859;BME280;28505;56.970;40.998;2024-03-25T19:14:34;99378.78;;;-1.93;100.00
42859;BME280;28505;56.970;40.998;2024-03-25T19:19:54;99386.28;;;-2.20;100.00
42859;BME280;28505;56.970;40.998;2024-03-25T19:25:15;99383.59;;;-2.02;100.00
42859;BME280;28505;56.970;40.998;2024-03-25T19:30:38;99397.44;;;-2.18;100.00
42859;BME280;28505;56.970;40.998;2024-03-25T19:36:11;99404.00;;;-2.76;100.00
42859;BME280;28505;56.970;40.998;2024-03-25T19:41:32;99401.13;;;-1.77;100.00
42859;BME280;28505;56.970;40.998;2024-03-25T19:46:53;99407.16;;;-2.67;100.00
42859;BME280;28505;56.970;40.998;2024-03-25T19:52:15;99408.31;;;-3.00;100.00
42859;BME280;28505;56.970;40.998;2024-03-25T19:57:49;99413.78;;;-3.01;100.00
42859;BME280;28505;56.970;40.998;2024-03-25T20:03:09;99414.59;;;-2.09;100.00
42859;BME280;28505;56.970;40.998;2024-03-25T20:08:42;99429.91;;;-1.88;100.00
42859;BME280;28505;56.970;40.998;2024-03-25T20:14:03;99430.75;;;-2.54;100.00
42859;BME280;28505;56.970;40.998;2024-03-25T20:19:25;99441.81;;;-2.82;100.00
42859;BME280;28505;56.970;40.998;2024-03-25T20:24:47;99444.31;;;-3.12;100.00
42859;BME280;28505;56.970;40.998;2024-03-25T20:30:21;99448.66;;;-2.38;100.00
42859;BME280;28505;56.970;40.998;2024-03-25T20:35:42;99441.31;;;-2.91;100.00
42859;BME280;28505;56.970;40.998;2024-03-25T20:41:04;99447.47;;;-2.60;100.00
42859;BME280;28505;56.970;40.998;2024-03-25T20:46:39;99442.63;;;-2.82;100.00
42859;BME280;28505;56.970;40.998;2024-03-25T20:52:00;99443.97;;;-2.54;100.00
42859;BME280;28505;56.970;40.998;2024-03-25T20:57:21;99442.34;;;-2.37;100.00
42859;BME280;28505;56.970;40.998;2024-03-25T21:02:44;99452.41;;;-3.07;100.00
42859;BME280;28505;56.970;40.998;2024-03-25T21:08:05;99450.16;;;-2.12;100.00
42859;BME280;28505;56.970;40.998;2024-03-25T21:13:26;99452.13;;;-2.99;100.00
42859;BME280;28505;56.970;40.998;2024-03-25T21:18:48;99453.91;;;-2.19;100.00
42859;BME280;28505;56.970;40.998;2024-03-25T21:24:09;99453.78;;;-1.94;100.00
42859;BME280;28505;56.970;40.998;2024-03-25T21:29:42;99458.47;;;-2.26;100.00
42859;BME280;28505;56.970;40.998;2024-03-25T21:35:04;99460.56;;;-3.15;100.00
42859;BME280;28505;56.970;40.998;2024-03-25T21:40:25;99466.09;;;-2.73;100.00
42859;BME280;28505;56.970;40.998;2024-03-25T21:45:46;99463.41;;;-2.92;100.00
42859;BME280;28505;56.970;40.998;2024-03-25T21:51:07;99473.53;;;-3.70;100.00
42859;BME280;28505;56.970;40.998;2024-03-25T21:56:30;99477.06;;;-2.76;100.00
42859;BME280;28505;56.970;40.998;2024-03-25T22:02:03;99487.81;;;-3.85;100.00
42859;BME280;28505;56.970;40.998;2024-03-25T22:07:24;99492.09;;;-3.90;100.00
42859;BME280;28505;56.970;40.998;2024-03-25T22:12:45;99480.38;;;-2.81;100.00
42859;BME280;28505;56.970;40.998;2024-03-25T22:18:07;99483.34;;;-2.96;100.00
42859;BME280;28505;56.970;40.998;2024-03-25T22:23:46;99491.56;;;-3.67;100.00
42859;BME280;28505;56.970;40.998;2024-03-25T22:29:08;99488.41;;;-3.51;100.00
42859;BME280;28505;56.970;40.998;2024-03-25T22:34:31;99486.19;;;-3.22;100.00
42859;BME280;28505;56.970;40.998;2024-03-25T22:39:55;99495.38;;;-2.82;100.00
42859;BME280;28505;56.970;40.998;2024-03-25T22:45:28;99505.03;;;-3.19;100.00
42859;BME280;28505;56.970;40.998;2024-03-25T22:56:17;99506.00;;;-4.21;100.00
42859;BME280;28505;56.970;40.998;2024-03-25T23:01:38;99503.75;;;-3.41;100.00
42859;BME280;28505;56.970;40.998;2024-03-25T23:07:08;99489.72;;;-3.67;100.00
42859;BME280;28505;56.970;40.998;2024-03-25T23:12:30;99502.53;;;-3.39;100.00
42859;BME280;28505;56.970;40.998;2024-03-25T23:17:51;99510.84;;;-3.73;100.00
42859;BME280;28505;56.970;40.998;2024-03-25T23:23:15;99510.78;;;-3.03;100.00
42859;BME280;28505;56.970;40.998;2024-03-25T23:28:36;99515.63;;;-3.25;100.00
42859;BME280;28505;56.970;40.998;2024-03-25T23:34:00;99515.31;;;-3.11;100.00
42859;BME280;28505;56.970;40.998;2024-03-25T23:39:33;99508.97;;;-3.03;100.00
42859;BME280;28505;56.970;40.998;2024-03-25T23:44:54;99510.75;;;-4.57;100.00
42859;BME280;28505;56.970;40.998;2024-03-25T23:50:15;99511.78;;;-4.84;100.00
42859;BME280;28505;56.970;40.998;2024-03-25T23:55:36;99521.97;;;-3.33;100.00
